Time;durP1;ratioP1;P1;durP2;ratioP2;P2;SDS_P1;SDS_P2;PMS_P1;PMS_P2;Temp;Humidity;BMP_temperature;BMP_pressure;BME280_temperature;BME280_humidity;BME280_pressure;Samples;Min_cycle;Max_cycle;Signal;HPM_P1;HPM_P2
2021/05/22 00:00:01;;;;;;;0.20;0.20;;;;;;;11.02;71.91;97666.63;4997914;28;20428;-77
2021/05/22 00:02:28;;;;;;;0.43;0.20;;;;;;;11.21;70.77;97664.94;5001898;28;20061;-77
2021/05/22 00:04:56;;;;;;;0.88;0.30;;;;;;;10.97;72.06;97665.97;4998254;28;20081;-77
2021/05/22 00:07:23;;;;;;;0.57;0.30;;;;;;;10.99;71.29;97666.72;4989314;28;20424;-75
2021/05/22 00:09:50;;;;;;;0.40;0.40;;;;;;;10.97;71.94;97668.56;4986180;28;20046;-77
2021/05/22 00:12:18;;;;;;;1.38;0.30;;;;;;;10.83;72.58;97676.97;5039325;28;20124;-77
2021/05/22 00:14:45;;;;;;;1.08;0.35;;;;;;;11.32;71.19;97688.84;5038809;28;20049;-77
2021/05/22 00:17:12;;;;;;;0.30;0.30;;;;;;;10.87;71.43;97677.69;5049111;28;20059;-77
2021/05/22 00:19:39;;;;;;;0.50;0.30;;;;;;;10.68;73.01;97682.81;5032851;28;20583;-77
2021/05/22 00:22:06;;;;;;;0.90;0.30;;;;;;;10.87;72.50;97690.75;5043043;28;20059;-77
2021/05/22 00:24:33;;;;;;;0.40;0.20;;;;;;;11.00;72.13;97693.72;5043263;28;20572;-76
2021/05/22 00:27:01;;;;;;;0.40;0.30;;;;;;;11.25;71.57;97697.03;5039422;28;20095;-77
2021/05/22 00:29:28;;;;;;;0.77;0.40;;;;;;;10.90;72.65;97701.06;5042488;28;20410;-76
2021/05/22 00:31:56;;;;;;;0.30;0.30;;;;;;;10.96;71.96;97708.66;5031159;28;20049;-77
2021/05/22 00:34:23;;;;;;;1.10;0.40;;;;;;;11.26;70.97;97701.34;5039173;28;20154;-77
2021/05/22 00:36:50;;;;;;;2.00;0.25;;;;;;;11.08;71.59;97704.72;5041552;28;20419;-76
2021/05/22 00:39:17;;;;;;;0.52;0.52;;;;;;;10.35;73.12;97703.25;5015934;28;20041;-77
2021/05/22 00:41:44;;;;;;;1.20;0.45;;;;;;;10.73;73.21;97713.97;5024470;28;20115;-78
2021/05/22 00:44:11;;;;;;;0.28;0.20;;;;;;;10.84;72.56;97703.94;5035972;28;20049;-76
2021/05/22 00:46:38;;;;;;;0.63;0.30;;;;;;;10.67;72.94;97716.81;5040979;28;20053;-76
2021/05/22 00:49:05;;;;;;;0.63;0.38;;;;;;;10.40;73.73;97722.22;5039890;28;20049;-77
2021/05/22 00:51:31;;;;;;;1.05;0.60;;;;;;;10.40;73.17;97723.97;5042172;28;20132;-77
2021/05/22 00:53:58;;;;;;;2.55;0.75;;;;;;;10.38;72.61;97724.03;5040824;28;20052;-76
2021/05/22 00:56:26;;;;;;;2.47;0.60;;;;;;;10.25;72.67;97719.31;5025445;28;20095;-77
2021/05/22 00:58:53;;;;;;;0.93;0.30;;;;;;;10.61;71.97;97733.56;5020374;28;20045;-75
2021/05/22 01:01:20;;;;;;;0.88;0.50;;;;;;;10.50;72.13;97738.38;5038480;28;20049;-75
2021/05/22 01:03:52;;;;;;;1.02;0.57;;;;;;;10.66;71.17;97731.63;5045150;28;20061;-76
2021/05/22 01:06:29;;;;;;;1.63;0.43;;;;;;;10.58;71.45;97740.69;5038849;28;20106;-76
2021/05/22 01:09:06;;;;;;;0.77;0.40;;;;;;;10.75;70.62;97743.47;5036965;28;20057;-76
2021/05/22 01:11:42;;;;;;;0.85;0.60;;;;;;;10.33;71.70;97749.44;5044987;28;20098;-76
2021/05/22 01:14:42;;;;;;;0.57;0.38;;;;;;;10.32;71.17;97742.50;5036333;28;20048;-75
2021/05/22 01:17:13;;;;;;;0.80;0.52;;;;;;;10.40;70.91;97739.63;5034448;28;20082;-75
2021/05/22 01:20:16;;;;;;;1.05;0.60;;;;;;;10.87;69.98;97745.63;5041348;28;20104;-76
2021/05/22 01:22:51;;;;;;;1.10;0.57;;;;;;;11.15;68.45;97753.19;5029476;28;20080;-76
2021/05/22 01:25:30;;;;;;;0.80;0.47;;;;;;;10.46;70.35;97761.13;5035496;28;20048;-76
2021/05/22 01:28:00;;;;;;;1.75;0.50;;;;;;;10.44;70.21;97749.03;5023463;28;20098;-76
2021/05/22 01:30:28;;;;;;;1.65;0.60;;;;;;;10.65;69.02;97740.38;5038965;28;20128;-76
2021/05/22 01:32:57;;;;;;;3.22;0.80;;;;;;;10.69;68.96;97759.41;5044190;28;20072;-77
2021/05/22 01:35:24;;;;;;;0.70;0.50;;;;;;;10.41;69.93;97755.22;5046269;28;20061;-77
2021/05/22 01:37:51;;;;;;;1.92;0.82;;;;;;;11.05;68.53;97768.41;5026798;28;20063;-76
2021/05/22 01:40:19;;;;;;;0.65;0.50;;;;;;;10.92;68.22;97767.19;5019077;28;20069;-76
2021/05/22 01:42:46;;;;;;;1.73;0.70;;;;;;;10.97;67.94;97762.63;5035562;28;20576;-76
2021/05/22 01:45:16;;;;;;;2.65;1.00;;;;;;;10.81;67.83;97759.75;5036951;28;20045;-77
2021/05/22 01:47:46;;;;;;;2.42;0.95;;;;;;;10.58;68.65;97764.19;5055430;28;20049;-76
2021/05/22 01:50:17;;;;;;;1.05;0.70;;;;;;;9.97;70.23;97761.19;5035853;28;20056;-77
2021/05/22 01:52:47;;;;;;;2.22;0.65;;;;;;;10.48;69.17;97764.53;5048207;28;20056;-76
2021/05/22 01:55:15;;;;;;;1.67;0.77;;;;;;;10.20;69.21;97782.13;5040417;28;20053;-76
2021/05/22 01:57:43;;;;;;;1.38;0.63;;;;;;;10.61;69.05;97777.09;5046402;28;20053;-76
2021/05/22 02:00:12;;;;;;;1.27;0.65;;;;;;;10.66;68.25;97775.16;5038963;28;20593;-76
2021/05/22 02:02:55;;;;;;;1.40;0.75;;;;;;;10.14;69.91;97782.31;5025601;28;20106;-76
2021/05/22 02:05:23;;;;;;;2.05;0.70;;;;;;;10.22;70.44;97787.25;5042530;28;20156;-76
2021/05/22 02:07:53;;;;;;;3.53;0.68;;;;;;;10.48;68.45;97790.63;5039510;28;20049;-76
2021/05/22 02:10:20;;;;;;;0.68;0.40;;;;;;;10.39;69.39;97797.97;5035804;28;20049;-76
2021/05/22 02:12:48;;;;;;;1.55;0.43;;;;;;;10.19;70.10;97798.69;5037391;28;20068;-76
2021/05/22 02:15:16;;;;;;;1.73;0.50;;;;;;;10.37;69.11;97808.44;5020640;28;20051;-76
2021/05/22 02:17:46;;;;;;;2.45;0.43;;;;;;;10.51;67.84;97807.94;5042914;28;20045;-77
2021/05/22 02:20:16;;;;;;;0.45;0.40;;;;;;;10.60;68.23;97809.38;5034168;28;20046;-76
2021/05/22 02:22:45;;;;;;;1.88;0.60;;;;;;;10.43;68.47;97812.59;5018288;28;21246;-77
2021/05/22 02:25:14;;;;;;;2.05;0.68;;;;;;;10.25;69.26;97821.09;5032225;28;20045;-76
2021/05/22 02:27:41;;;;;;;3.30;0.60;;;;;;;10.45;67.94;97822.06;5038939;28;20087;-76
2021/05/22 02:30:11;;;;;;;1.83;0.45;;;;;;;10.22;69.04;97821.19;5033187;28;20136;-77
2021/05/22 02:32:44;;;;;;;3.55;0.80;;;;;;;10.54;68.25;97823.50;5038491;28;20527;-76
2021/05/22 02:35:12;;;;;;;1.92;0.55;;;;;;;10.67;67.56;97837.78;5010971;28;20060;-77
2021/05/22 02:37:39;;;;;;;0.47;0.47;;;;;;;10.81;66.84;97834.66;5044006;28;20474;-76
2021/05/22 02:40:13;;;;;;;0.93;0.60;;;;;;;10.62;67.61;97838.88;5036207;28;20056;-76
2021/05/22 02:42:45;;;;;;;1.02;0.40;;;;;;;10.51;67.78;97841.88;5044903;28;20044;-76
2021/05/22 02:45:13;;;;;;;;;;;;;;;11.02;66.31;97848.69;5052581;28;20052;-76
2021/05/22 02:47:44;;;;;;;0.77;0.57;;;;;;;11.31;65.00;97853.63;5039541;28;20332;-77
2021/05/22 02:50:13;;;;;;;4.65;0.40;;;;;;;11.06;65.76;97843.28;5042359;28;20414;-77
2021/05/22 02:52:42;;;;;;;0.50;0.50;;;;;;;10.99;65.91;97847.00;5040191;28;20053;-77
2021/05/22 02:55:09;;;;;;;1.17;0.47;;;;;;;10.70;66.92;97852.47;5038412;28;20404;-76
2021/05/22 02:57:39;;;;;;;1.05;0.40;;;;;;;10.64;66.51;97855.34;5028426;28;20048;-77
2021/05/22 03:00:08;;;;;;;2.17;0.65;;;;;;;10.76;66.98;97854.88;5034297;28;20045;-77
2021/05/22 03:02:37;;;;;;;3.22;0.73;;;;;;;10.61;67.68;97865.88;5041599;28;20045;-76
2021/05/22 03:05:06;;;;;;;0.82;0.50;;;;;;;10.55;68.12;97861.72;5034503;28;20036;-78
2021/05/22 03:07:34;;;;;;;1.45;0.60;;;;;;;10.60;67.09;97864.22;5039960;28;20049;-77
2021/05/22 03:10:03;;;;;;;2.38;0.40;;;;;;;10.54;67.12;97860.06;5040121;28;20048;-77
2021/05/22 03:12:33;;;;;;;2.63;0.40;;;;;;;10.50;66.62;97866.31;5040948;28;20052;-76
2021/05/22 03:15:02;;;;;;;0.30;0.30;;;;;;;10.80;65.81;97878.22;5032473;28;20523;-77
2021/05/22 03:17:30;;;;;;;2.35;0.55;;;;;;;10.33;67.57;97882.56;5021043;28;20138;-76
2021/05/22 03:19:58;;;;;;;0.93;0.57;;;;;;;10.32;67.36;97886.06;5040962;28;20048;-77
2021/05/22 03:22:25;;;;;;;3.08;0.60;;;;;;;10.85;66.49;97896.31;5024281;28;20070;-78
2021/05/22 03:24:53;;;;;;;0.65;0.50;;;;;;;10.41;66.69;97888.34;5038082;28;20068;-76
2021/05/22 03:27:20;;;;;;;3.20;0.60;;;;;;;10.41;66.60;97893.56;5037835;28;20053;-77
2021/05/22 03:29:47;;;;;;;2.72;0.45;;;;;;;10.65;66.56;97896.19;5039819;28;20123;-77
2021/05/22 03:32:14;;;;;;;3.15;0.63;;;;;;;10.08;68.26;97899.91;5035892;28;20057;-77
2021/05/22 03:34:41;;;;;;;0.73;0.40;;;;;;;9.76;69.35;97892.34;5045905;28;20045;-77
2021/05/22 03:37:08;;;;;;;1.48;0.47;;;;;;;10.15;67.68;97901.44;5036292;28;20056;-77
2021/05/22 03:39:35;;;;;;;1.63;0.47;;;;;;;10.23;67.53;97907.25;5033302;28;20528;-76
2021/05/22 03:42:02;;;;;;;0.25;0.22;;;;;;;10.46;67.10;97916.91;5036195;28;20663;-77
2021/05/22 03:44:29;;;;;;;0.63;0.55;;;;;;;10.41;66.24;97919.66;5044464;28;20048;-76
2021/05/22 03:46:56;;;;;;;1.83;0.50;;;;;;;10.68;65.88;97932.66;5044897;28;20049;-76
2021/05/22 03:49:23;;;;;;;2.15;0.40;;;;;;;10.52;66.03;97924.53;5044166;28;20041;-77
2021/05/22 03:51:51;;;;;;;1.67;0.57;;;;;;;10.09;66.86;97925.13;5028660;28;20045;-76
2021/05/22 03:56:42;;;;;;;2.47;0.38;;;;;;;10.44;66.75;97927.41;5051118;27;20415;-76
2021/05/22 03:59:09;;;;;;;1.08;0.57;;;;;;;10.23;67.88;97941.19;5009072;28;20186;-77
2021/05/22 04:01:36;;;;;;;1.55;0.52;;;;;;;10.41;67.04;97944.91;5024630;28;20062;-77
2021/05/22 04:04:04;;;;;;;0.73;0.57;;;;;;;10.06;68.38;97946.09;4987619;28;20081;-76
2021/05/22 04:06:32;;;;;;;2.30;0.82;;;;;;;10.39;67.34;97955.44;4991305;28;20058;-76
2021/05/22 04:08:59;;;;;;;0.77;0.47;;;;;;;10.35;68.22;97951.22;5023819;28;20050;-77
2021/05/22 04:11:26;;;;;;;2.45;0.63;;;;;;;10.14;68.03;97951.91;4995674;28;20066;-76
2021/05/22 04:13:53;;;;;;;0.70;0.45;;;;;;;10.28;66.75;97954.94;4980647;28;20114;-77
2021/05/22 04:16:20;;;;;;;1.25;0.60;;;;;;;9.87;68.45;97958.91;4994948;28;20046;-76
2021/05/22 04:18:47;;;;;;;1.38;0.50;;;;;;;9.89;68.41;97962.28;5017704;28;20361;-77
2021/05/22 04:21:14;;;;;;;1.90;0.50;;;;;;;10.06;67.15;97962.63;4991075;28;20137;-76
2021/05/22 04:23:42;;;;;;;5.57;0.80;;;;;;;10.24;67.02;97965.53;4996114;28;20562;-76
2021/05/22 04:26:08;;;;;;;0.75;0.40;;;;;;;10.54;65.82;97964.50;4992464;28;20111;-76
2021/05/22 04:28:35;;;;;;;1.55;0.60;;;;;;;10.82;65.40;97970.44;4997004;28;20046;-76
2021/05/22 04:31:04;;;;;;;4.20;0.60;;;;;;;10.47;66.78;97974.28;5017783;28;20103;-77
2021/05/22 04:33:31;;;;;;;2.85;0.40;;;;;;;10.50;67.39;97979.38;4994550;28;20112;-76
2021/05/22 04:35:59;;;;;;;3.42;0.70;;;;;;;10.26;66.83;97982.00;4995189;28;20068;-76
2021/05/22 04:38:26;;;;;;;1.75;0.40;;;;;;;9.82;68.76;97989.50;5020830;28;20046;-76
2021/05/22 04:40:53;;;;;;;0.73;0.40;;;;;;;10.17;67.24;97990.97;4997887;28;20053;-76
2021/05/22 04:43:21;;;;;;;0.68;0.30;;;;;;;10.29;67.07;97997.56;5022834;28;20050;-77
2021/05/22 04:45:48;;;;;;;2.08;0.40;;;;;;;10.12;68.32;97992.84;5006029;28;20562;-76
2021/05/22 04:48:15;;;;;;;1.27;0.32;;;;;;;10.21;67.75;97995.22;4992184;28;20099;-77
2021/05/22 04:50:43;;;;;;;1.35;0.32;;;;;;;10.15;67.81;98005.81;5019532;28;20050;-76
2021/05/22 04:53:10;;;;;;;0.50;0.50;;;;;;;10.19;67.15;98004.84;4994880;28;20429;-77
2021/05/22 04:55:37;;;;;;;1.48;0.57;;;;;;;10.01;67.01;98014.09;4994003;28;20161;-76
2021/05/22 04:58:04;;;;;;;1.48;0.43;;;;;;;10.45;65.86;98011.81;4991601;28;20043;-76
2021/05/22 05:00:31;;;;;;;1.23;0.70;;;;;;;10.45;65.85;98012.63;4995719;28;20050;-76
2021/05/22 05:02:58;;;;;;;2.10;0.75;;;;;;;10.15;66.99;98021.47;5013540;28;20046;-76
2021/05/22 05:05:25;;;;;;;1.48;0.43;;;;;;;10.20;66.60;98027.41;4997993;28;20072;-75
2021/05/22 05:07:53;;;;;;;1.05;0.30;;;;;;;10.51;65.76;98027.25;5005008;28;20221;-75
2021/05/22 05:10:21;;;;;;;0.68;0.40;;;;;;;10.38;65.59;98032.03;4987645;28;20052;-75
2021/05/22 05:12:48;;;;;;;0.90;0.60;;;;;;;10.32;66.35;98039.19;5002187;28;20413;-75
2021/05/22 05:15:15;;;;;;;2.05;0.35;;;;;;;10.53;66.36;98033.28;4980665;28;20051;-76
2021/05/22 05:17:43;;;;;;;1.08;0.93;;;;;;;10.37;67.03;98042.50;4982183;28;20051;-76
2021/05/22 05:20:10;;;;;;;2.97;0.60;;;;;;;10.68;65.41;98038.00;5017847;28;20055;-76
2021/05/22 05:22:37;;;;;;;3.22;0.50;;;;;;;10.53;66.13;98038.50;4984705;28;20054;-75
2021/05/22 05:25:06;;;;;;;0.60;0.43;;;;;;;10.79;64.92;98048.06;4965380;28;20042;-76
2021/05/22 05:27:33;;;;;;;2.53;0.40;;;;;;;10.53;65.83;98058.53;4991807;28;20139;-76
2021/05/22 05:30:00;;;;;;;3.10;0.60;;;;;;;10.18;66.90;98057.06;4964668;28;20424;-76
2021/05/22 05:32:27;;;;;;;0.70;0.40;;;;;;;10.58;65.05;98060.09;4980495;28;20049;-76
2021/05/22 05:34:54;;;;;;;3.78;0.50;;;;;;;10.72;65.10;98067.47;4975578;28;20570;-76
2021/05/22 05:37:23;;;;;;;1.10;0.50;;;;;;;10.31;65.85;98067.06;4983322;28;20046;-76
2021/05/22 05:39:50;;;;;;;0.52;0.38;;;;;;;10.66;64.67;98065.91;4964404;28;20050;-79
2021/05/22 05:42:18;;;;;;;1.42;0.50;;;;;;;10.31;65.54;98064.44;4990180;28;20138;-75
2021/05/22 05:44:45;;;;;;;0.77;0.40;;;;;;;10.46;64.97;98073.53;4983607;28;20054;-76
2021/05/22 05:47:12;;;;;;;4.75;0.50;;;;;;;11.01;63.49;98071.69;4979066;28;20184;-75
2021/05/22 05:49:39;;;;;;;0.57;0.30;;;;;;;10.85;64.56;98076.56;4981408;28;20106;-76
2021/05/22 05:52:08;;;;;;;1.42;0.30;;;;;;;10.62;64.96;98085.19;4978930;28;20488;-76
2021/05/22 05:54:36;;;;;;;0.95;0.32;;;;;;;10.50;64.94;98090.84;4974606;28;20085;-76
2021/05/22 05:57:03;;;;;;;1.08;0.32;;;;;;;10.48;64.81;98090.88;4974789;28;20046;-76
2021/05/22 05:59:30;;;;;;;0.88;0.30;;;;;;;10.24;66.08;98093.41;4975827;28;20159;-76
2021/05/22 06:01:57;;;;;;;0.93;0.50;;;;;;;10.59;64.86;98102.72;4982419;28;20119;-76
2021/05/22 06:04:24;;;;;;;0.60;0.38;;;;;;;10.73;64.45;98109.19;5009657;28;20046;-77
2021/05/22 06:06:51;;;;;;;4.03;0.40;;;;;;;10.70;64.61;98118.88;4982325;28;20092;-76
2021/05/22 06:09:19;;;;;;;1.55;0.45;;;;;;;10.88;64.44;98124.38;4979909;28;20038;-76
2021/05/22 06:11:46;;;;;;;1.95;0.52;;;;;;;11.10;63.81;98127.09;4981682;28;20047;-77
2021/05/22 06:14:19;;;;;;;2.55;0.47;;;;;;;11.07;63.54;98123.75;4991539;28;20096;-76
2021/05/22 06:16:46;;;;;;;2.60;0.68;;;;;;;10.25;66.38;98131.66;4979539;28;20065;-77
2021/05/22 06:19:13;;;;;;;1.33;0.47;;;;;;;10.40;65.73;98134.66;5003277;28;20053;-77
2021/05/22 06:21:40;;;;;;;0.75;0.50;;;;;;;10.78;64.30;98132.56;5004934;28;20119;-76
2021/05/22 06:24:09;;;;;;;1.17;0.40;;;;;;;10.90;63.87;98146.06;5010213;28;20043;-76
2021/05/22 06:26:36;;;;;;;3.45;0.70;;;;;;;11.03;63.25;98146.47;4987595;28;20054;-77
2021/05/22 06:29:03;;;;;;;1.85;0.35;;;;;;;10.72;65.08;98140.59;4962843;28;20108;-76
2021/05/22 06:31:30;;;;;;;0.95;0.30;;;;;;;10.56;65.52;98144.59;4978062;28;20058;-76
2021/05/22 06:33:58;;;;;;;1.50;0.57;;;;;;;10.57;65.38;98149.78;4979315;28;20120;-77
2021/05/22 06:36:27;;;;;;;1.35;0.50;;;;;;;11.02;64.18;98159.63;4983938;28;20066;-76
2021/05/22 06:38:55;;;;;;;0.95;0.45;;;;;;;11.35;62.99;98159.31;4992360;28;20115;-76
2021/05/22 06:41:23;;;;;;;1.10;0.30;;;;;;;11.66;62.81;98164.31;4983422;28;20523;-76
2021/05/22 06:43:51;;;;;;;0.43;0.30;;;;;;;11.22;62.82;98163.25;5003782;28;20038;-76
2021/05/22 06:48:45;;;;;;;1.35;0.60;;;;;;;11.28;63.36;98176.13;4982763;28;20099;-75
2021/05/22 06:51:12;;;;;;;0.60;0.40;;;;;;;11.03;63.82;98177.84;4984602;28;20100;-76
2021/05/22 06:53:39;;;;;;;1.70;0.50;;;;;;;11.30;62.64;98187.38;4965444;28;20427;-77
2021/05/22 06:56:07;;;;;;;2.60;0.43;;;;;;;11.42;63.10;98185.22;4972021;28;20066;-77
2021/05/22 06:58:34;;;;;;;1.98;0.40;;;;;;;11.32;62.40;98190.78;4996496;28;20068;-78
2021/05/22 07:01:01;;;;;;;1.73;0.63;;;;;;;11.31;61.65;98198.69;4977979;28;20050;-77
2021/05/22 07:03:28;;;;;;;1.30;0.43;;;;;;;11.25;62.07;98206.75;4981778;28;20054;-78
2021/05/22 07:05:57;;;;;;;0.50;0.38;;;;;;;11.60;61.47;98208.16;4990082;28;20487;-77
2021/05/22 07:08:26;;;;;;;3.50;0.75;;;;;;;11.49;61.48;98218.13;4980274;28;20116;-78
2021/05/22 07:10:55;;;;;;;3.47;0.40;;;;;;;10.91;62.98;98204.38;4995215;28;20054;-78
2021/05/22 07:13:23;;;;;;;1.85;0.57;;;;;;;11.49;61.73;98221.59;4977792;28;20048;-78
2021/05/22 07:15:50;;;;;;;4.10;0.63;;;;;;;11.50;61.04;98219.84;4990333;28;20129;-77
2021/05/22 07:18:18;;;;;;;2.47;0.30;;;;;;;11.76;61.20;98223.25;4962989;28;20046;-78
2021/05/22 07:20:45;;;;;;;4.10;0.50;;;;;;;11.55;60.67;98226.63;4966464;28;20319;-78
2021/05/22 07:23:39;;;;;;;0.80;0.60;;;;;;;11.71;60.92;98229.53;5077354;27;20160;-77
2021/05/22 07:26:06;;;;;;;0.82;0.43;;;;;;;11.71;60.67;98221.69;5061329;28;20067;-78
2021/05/22 07:28:34;;;;;;;0.65;0.30;;;;;;;11.06;63.71;98237.88;5060248;28;20121;-77
2021/05/22 07:31:01;;;;;;;5.40;0.40;;;;;;;11.63;61.41;98239.41;5044951;28;20048;-77
2021/05/22 07:33:34;;;;;;;1.45;0.50;;;;;;;11.02;63.47;98244.09;5022473;28;20045;-77
2021/05/22 07:36:01;;;;;;;0.50;0.50;;;;;;;12.05;60.68;98243.16;5034498;28;20041;-78
2021/05/22 07:38:29;;;;;;;2.17;0.40;;;;;;;12.52;58.23;98259.72;5043865;28;20369;-78
2021/05/22 07:40:56;;;;;;;2.10;0.40;;;;;;;12.40;58.76;98257.56;5073534;28;20393;-77
2021/05/22 07:43:24;;;;;;;1.10;0.52;;;;;;;12.69;57.40;98264.31;5046021;28;20106;-78
2021/05/22 07:45:56;;;;;;;1.30;0.47;;;;;;;12.21;58.92;98256.53;5077828;28;20767;-77
2021/05/22 07:48:26;;;;;;;0.55;0.30;;;;;;;12.18;58.03;98259.28;5043250;28;20057;-78
2021/05/22 07:50:53;;;;;;;2.08;0.60;;;;;;;12.60;57.28;98272.53;5073546;28;20049;-78
2021/05/22 07:53:21;;;;;;;1.15;0.57;;;;;;;12.85;56.42;98268.06;5056196;28;20414;-78
2021/05/22 07:55:49;;;;;;;2.47;0.60;;;;;;;12.38;56.67;98277.72;5056921;28;20176;-78
2021/05/22 07:58:17;;;;;;;2.35;0.80;;;;;;;12.22;56.95;98273.97;5029411;28;20041;-78
2021/05/22 08:00:45;;;;;;;2.92;1.73;;;;;;;11.61;59.49;98290.91;5051614;28;20052;-79
2021/05/22 08:03:12;;;;;;;2.80;0.50;;;;;;;11.65;60.42;98287.31;5058079;28;20067;-78
2021/05/22 08:05:51;;;;;;;0.75;0.35;;;;;;;12.31;58.42;98285.88;5064924;27;20472;-78
2021/05/22 08:08:18;;;;;;;1.27;0.52;;;;;;;12.61;57.20;98296.03;5093219;28;20120;-76
2021/05/22 08:11:04;;;;;;;1.17;0.60;;;;;;;12.71;56.69;98299.16;5032953;28;20482;-77
2021/05/22 08:13:33;;;;;;;1.58;0.50;;;;;;;12.58;56.63;98292.69;5087292;28;20133;-76
2021/05/22 08:16:01;;;;;;;3.70;0.50;;;;;;;12.70;56.49;98291.38;5055909;28;20049;-78
2021/05/22 08:18:30;;;;;;;1.38;0.50;;;;;;;12.64;56.98;98292.47;5042781;28;20064;-78
2021/05/22 08:22:18;;;;;;;0.73;0.32;;;;;;;12.59;58.50;98307.50;5020871;28;20749;-78
2021/05/22 08:24:45;;;;;;;1.02;0.50;;;;;;;12.71;57.34;98317.50;4996676;28;20054;-85
2021/05/22 08:27:12;;;;;;;0.95;0.52;;;;;;;12.91;57.24;98322.84;4983889;28;20065;-84
2021/05/22 08:29:57;;;;;;;1.38;0.52;;;;;;;12.86;56.31;98322.16;4988011;28;20116;-83
2021/05/22 08:32:25;;;;;;;1.13;0.40;;;;;;;12.89;56.54;98329.94;4976337;28;20050;-81
2021/05/22 08:34:54;;;;;;;1.60;0.68;;;;;;;12.93;56.39;98334.13;4992857;28;20050;-84
2021/05/22 08:37:22;;;;;;;0.98;0.50;;;;;;;13.05;55.62;98335.41;4991403;28;20069;-82
2021/05/22 08:39:50;;;;;;;1.75;0.65;;;;;;;12.97;54.91;98340.09;4989382;28;20709;-83
2021/05/22 08:42:29;;;;;;;0.88;0.40;;;;;;;12.83;55.75;98342.41;4971161;28;20525;-85
2021/05/22 08:45:09;;;;;;;1.75;0.70;;;;;;;12.80;54.70;98335.53;4985903;28;20059;-81
2021/05/22 08:47:37;;;;;;;1.67;0.60;;;;;;;12.94;55.48;98350.72;4965652;28;20061;-85
2021/05/22 08:50:07;;;;;;;1.48;0.93;;;;;;;12.63;56.42;98351.88;4964907;28;20047;-83
2021/05/22 08:52:36;;;;;;;0.68;0.52;;;;;;;12.51;56.12;98349.72;4968230;28;20054;-82
2021/05/22 08:55:06;;;;;;;1.98;0.50;;;;;;;12.52;56.94;98353.16;4972994;28;20493;-82
2021/05/22 08:57:34;;;;;;;1.73;0.55;;;;;;;13.04;55.85;98359.94;4980847;28;20144;-81
2021/05/22 09:00:07;;;;;;;2.25;0.43;;;;;;;12.78;55.16;98360.06;4932195;28;20049;-82
2021/05/22 09:02:34;;;;;;;1.67;0.30;;;;;;;13.24;54.34;98359.16;4928573;28;20105;-83
2021/05/22 09:05:25;;;;;;;1.20;0.50;;;;;;;13.23;53.99;98362.72;4959696;28;20592;-81
2021/05/22 09:07:55;;;;;;;2.83;0.50;;;;;;;13.35;54.54;98367.47;4985643;28;20046;-82
2021/05/22 09:10:33;;;;;;;0.70;0.65;;;;;;;13.38;54.72;98356.88;4982429;28;20050;-88
2021/05/22 09:13:37;;;;;;;3.20;0.60;;;;;;;13.88;52.87;98370.56;4980765;28;20062;-87
2021/05/22 09:16:35;;;;;;;1.77;0.68;;;;;;;13.73;52.50;98377.28;4843088;29;20516;-87
2021/05/22 09:19:03;;;;;;;1.60;0.70;;;;;;;12.85;54.74;98372.03;4925691;29;20044;-84
2021/05/22 09:21:34;;;;;;;3.45;0.60;;;;;;;12.97;53.45;98380.28;4928632;28;20048;-85
2021/05/22 09:24:05;;;;;;;2.40;0.60;;;;;;;13.19;54.70;98385.56;4911006;28;20138;-89
2021/05/22 09:26:33;;;;;;;3.53;0.60;;;;;;;13.08;56.29;98393.00;4919285;29;20202;-82
2021/05/22 09:29:03;;;;;;;3.67;0.75;;;;;;;13.40;53.48;98391.75;4928247;28;20195;-79
2021/05/22 09:31:30;;;;;;;1.20;0.40;;;;;;;14.06;52.05;98398.66;4906190;28;20055;-81
2021/05/22 09:33:59;;;;;;;1.45;0.57;;;;;;;13.72;53.11;98398.34;4894923;29;20067;-86
2021/05/22 09:36:30;;;;;;;0.90;0.43;;;;;;;14.05;52.20;98404.84;4915695;29;20124;-85
2021/05/22 09:38:59;;;;;;;2.25;0.47;;;;;;;13.80;52.02;98406.78;4900400;29;20071;-81
2021/05/22 09:41:28;;;;;;;1.30;0.40;;;;;;;14.31;51.37;98401.09;4902179;29;20043;-81
2021/05/22 09:44:08;;;;;;;0.35;0.35;;;;;;;14.49;49.95;98410.84;4894225;29;20048;-79
2021/05/22 09:46:44;;;;;;;0.50;0.40;;;;;;;14.88;49.34;98417.88;4908241;29;20044;-84
2021/05/22 09:49:28;;;;;;;2.42;0.60;;;;;;;14.04;52.43;98418.91;4888303;29;20159;-78
2021/05/22 09:52:20;;;;;;;2.45;0.40;;;;;;;13.51;53.27;98419.28;4906993;28;20413;-80
2021/05/22 09:54:50;;;;;;;1.95;0.68;;;;;;;13.46;51.37;98423.88;4957180;28;20045;-81
2021/05/22 09:57:32;;;;;;;1.85;0.40;;;;;;;13.67;51.25;98429.19;4965847;28;20105;-81
2021/05/22 10:00:14;;;;;;;0.75;0.30;;;;;;;13.74;51.97;98426.25;4958710;28;20053;-87
2021/05/22 10:02:48;;;;;;;0.32;0.32;;;;;;;14.23;50.73;98429.47;4950534;28;20077;-82
2021/05/22 10:05:24;;;;;;;3.97;0.57;;;;;;;15.03;48.39;98428.56;4959136;28;20061;-79
2021/05/22 10:08:00;;;;;;;1.77;0.70;;;;;;;15.61;46.49;98439.91;4896436;28;20044;-83
2021/05/22 10:10:49;;;;;;;0.52;0.22;;;;;;;15.73;46.70;98438.44;4945366;28;20175;-84
2021/05/22 10:13:21;;;;;;;14.10;7.03;;;;;;;15.74;47.29;98445.44;4954612;28;20057;-89
2021/05/22 10:15:57;;;;;;;0.40;0.40;;;;;;;14.91;47.77;98449.31;4942293;28;20042;-87
2021/05/22 10:18:27;;;;;;;0.57;0.30;;;;;;;15.61;47.28;98453.06;4966074;28;20074;-82
2021/05/22 10:20:58;;;;;;;2.42;0.60;;;;;;;15.94;45.03;98455.84;4952466;28;20051;-81
2021/05/22 10:23:26;;;;;;;0.40;0.40;;;;;;;15.21;46.57;98458.44;4961646;28;20133;-85
2021/05/22 10:25:56;;;;;;;1.77;0.40;;;;;;;15.52;46.18;98456.16;4940906;28;20049;-81
2021/05/22 10:36:53;;;;;;;2.55;0.20;;;;;;;16.27;45.66;98471.78;4795064;29;20405;-87
2021/05/22 10:39:55;;;;;;;2.55;0.63;;;;;;;16.31;43.97;98480.38;4861270;29;20049;-86
2021/05/22 10:42:35;;;;;;;1.10;0.68;;;;;;;15.64;47.03;98483.66;4799796;29;20065;-86
2021/05/22 10:45:40;;;;;;;0.65;0.30;;;;;;;15.82;45.55;98482.81;4820840;29;20056;-86
2021/05/22 10:48:35;;;;;;;2.38;0.50;;;;;;;15.65;45.64;98488.84;4855183;29;20101;-84
2021/05/22 10:55:01;;;;;;;;;;;;;;;15.60;45.03;98501.38;4854936;29;20044;-84
2021/05/22 10:57:32;;;;;;;1.42;0.52;;;;;;;15.51;45.41;98493.91;4875769;29;19983;-82
2021/05/22 11:00:19;;;;;;;0.50;0.22;;;;;;;14.81;47.66;98506.72;4876652;29;20091;-86
2021/05/22 11:03:51;;;;;;;0.32;0.30;;;;;;;15.20;46.37;98504.13;4873244;29;20128;-88
2021/05/22 11:06:46;;;;;;;0.60;0.30;;;;;;;14.78;47.99;98498.94;4848699;29;20039;-85
2021/05/22 11:09:26;;;;;;;1.02;0.30;;;;;;;14.78;49.19;98504.19;4903251;29;20078;-87
2021/05/22 11:12:34;;;;;;;1.80;0.50;;;;;;;14.89;48.43;98507.22;4918420;28;20038;-87
2021/05/22 11:15:05;;;;;;;0.40;0.30;;;;;;;14.78;48.61;98512.09;4953291;28;20054;-87
2021/05/22 11:17:58;;;;;;;1.08;0.25;;;;;;;15.57;46.95;98512.06;4942134;28;20097;-82
2021/05/22 11:21:25;;;;;;;0.20;0.20;;;;;;;14.85;47.23;98516.19;4937786;28;20078;-79
2021/05/22 11:24:01;;;;;;;0.98;0.40;;;;;;;15.83;46.37;98517.88;4973171;28;20112;-79
2021/05/22 11:26:49;;;;;;;1.45;0.90;;;;;;;15.45;46.79;98528.38;4969792;28;20058;-84
2021/05/22 11:29:52;;;;;;;0.82;0.40;;;;;;;15.79;46.23;98529.47;4957872;28;20060;-82
2021/05/22 11:32:47;;;;;;;0.63;0.63;;;;;;;16.17;45.91;98531.13;4934373;28;20058;-83
2021/05/22 11:35:30;;;;;;;0.63;0.50;;;;;;;17.57;43.03;98530.06;4988318;28;20050;-83
2021/05/22 11:38:17;;;;;;;1.05;0.38;;;;;;;18.19;41.17;98526.63;4969476;28;20041;-80
2021/05/22 11:41:02;;;;;;;4.47;0.50;;;;;;;17.81;40.44;98533.19;4968538;28;20073;-81
2021/05/22 11:43:36;;;;;;;0.32;0.30;;;;;;;17.77;41.10;98531.66;4971075;28;20061;-83
2021/05/22 11:46:06;;;;;;;0.65;0.40;;;;;;;16.66;42.89;98536.66;4963699;28;20042;-84
2021/05/22 11:48:44;;;;;;;0.38;0.20;;;;;;;16.11;45.20;98542.00;4972459;28;20116;-82
2021/05/22 11:51:20;;;;;;;1.52;0.43;;;;;;;17.22;43.05;98541.66;4986415;28;20465;-81
2021/05/22 11:54:00;;;;;;;0.70;0.43;;;;;;;17.58;41.61;98541.50;4975669;28;20058;-80
2021/05/22 11:56:30;;;;;;;0.77;0.40;;;;;;;16.94;42.52;98544.88;4967673;28;20059;-82
2021/05/22 11:59:00;;;;;;;0.55;0.43;;;;;;;17.19;42.58;98545.31;4986447;28;20042;-79
2021/05/22 12:01:31;;;;;;;0.20;0.20;;;;;;;16.67;44.63;98546.28;4986831;28;20049;-79
2021/05/22 12:04:10;;;;;;;0.50;0.50;;;;;;;16.71;43.36;98548.69;4980695;28;20070;-80
2021/05/22 12:06:40;;;;;;;0.65;0.50;;;;;;;16.36;44.31;98546.91;4969567;28;20088;-82
2021/05/22 12:09:16;;;;;;;0.40;0.40;;;;;;;15.67;45.18;98558.09;4985968;28;20154;-82
2021/05/22 12:12:01;;;;;;;0.40;0.17;;;;;;;15.78;46.13;98551.50;4993896;28;20316;-85